KDAB

Daytona Beach International Airport

Daytona Beach, Florida, USA
METAR KDAB 230953Z 00000KT 2SM BR FEW009 SCT020 18/18 A3035 RMK AO2 SLP277 T01780178
Observed Flight Rules
Feb-23 @ 09:53 UTC (31 minutes ago) Instrument Flight Rules
Wind Visibility Clouds Conditions
Calm 2 miles
  • Few at 900' AGL
  • Scattered at 2,000' AGL
  • Mist
Temperatures Readings
Current 18°C / 64°F
Dewpoint 18°C / 64°F
Humidity 100%
Altimeter 30.35" Hg
Pressure 1027.7 hPa
Elevation 9
METAR KDAB 230953Z 00000KT 2SM BR FEW009 SCT020 18/18 A3035 RMK AO2 SLP277 T01780178
Observed Flight Rules
Feb-23 @ 09:53 UTC
(31 minutes ago)
IFR
Wind Visibility
Calm 2 miles
Clouds
  • Few at 900' AGL
  • Scattered at 2,000' AGL
Conditions
  • Mist
Temperature Dewpoint
18°C / 64°F 18°C / 64°F
Humidity Altimeter Pressure
100% 30.35" Hg 1027.7 hPa